sensor_id;sensor_type;location;lat;lon;timestamp;P1;durP1;ratioP1;P2;durP2;ratioP2
4504;SDS011;2265;48.794;9.520;2024-03-17T00:00:27;9.23;;;3.87;;
4504;SDS011;2265;48.794;9.520;2024-03-17T00:02:53;10.30;;;4.50;;
4504;SDS011;2265;48.794;9.520;2024-03-17T00:05:22;18.40;;;6.50;;
4504;SDS011;2265;48.794;9.520;2024-03-17T00:07:48;11.30;;;5.93;;
4504;SDS011;2265;48.794;9.520;2024-03-17T00:10:16;13.57;;;6.30;;
4504;SDS011;2265;48.794;9.520;2024-03-17T00:12:45;16.37;;;6.10;;
4504;SDS011;2265;48.794;9.520;2024-03-17T00:15:12;14.80;;;6.53;;
4504;SDS011;2265;48.794;9.520;2024-03-17T00:17:40;17.53;;;6.60;;
4504;SDS011;2265;48.794;9.520;2024-03-17T00:20:07;14.50;;;6.10;;
4504;SDS011;2265;48.794;9.520;2024-03-17T00:22:38;20.33;;;7.57;;
4504;SDS011;2265;48.794;9.520;2024-03-17T00:25:06;13.37;;;5.97;;
4504;SDS011;2265;48.794;9.520;2024-03-17T00:27:33;13.77;;;7.00;;
4504;SDS011;2265;48.794;9.520;2024-03-17T00:30:05;17.43;;;6.13;;
4504;SDS011;2265;48.794;9.520;2024-03-17T00:32:35;11.60;;;6.00;;
4504;SDS011;2265;48.794;9.520;2024-03-17T00:35:03;10.60;;;5.50;;
4504;SDS011;2265;48.794;9.520;2024-03-17T00:37:30;41.47;;;6.80;;
4504;SDS011;2265;48.794;9.520;2024-03-17T00:39:58;13.27;;;6.20;;
4504;SDS011;2265;48.794;9.520;2024-03-17T00:42:25;15.93;;;6.67;;
4504;SDS011;2265;48.794;9.520;2024-03-17T00:44:53;14.10;;;6.60;;
4504;SDS011;2265;48.794;9.520;2024-03-17T00:47:20;11.90;;;6.00;;
4504;SDS011;2265;48.794;9.520;2024-03-17T00:49:47;11.13;;;5.27;;
4504;SDS011;2265;48.794;9.520;2024-03-17T00:52:15;9.93;;;5.00;;
4504;SDS011;2265;48.794;9.520;2024-03-17T00:54:42;10.90;;;5.23;;
4504;SDS011;2265;48.794;9.520;2024-03-17T00:57:10;11.80;;;5.40;;
4504;SDS011;2265;48.794;9.520;2024-03-17T00:59:37;10.47;;;5.80;;
4504;SDS011;2265;48.794;9.520;2024-03-17T01:02:03;13.10;;;5.77;;
4504;SDS011;2265;48.794;9.520;2024-03-17T01:04:31;13.20;;;6.00;;
4504;SDS011;2265;48.794;9.520;2024-03-17T01:06:59;12.80;;;5.90;;
4504;SDS011;2265;48.794;9.520;2024-03-17T01:09:26;10.37;;;5.90;;
4504;SDS011;2265;48.794;9.520;2024-03-17T01:11:52;11.63;;;5.10;;
4504;SDS011;2265;48.794;9.520;2024-03-17T01:14:21;10.30;;;4.87;;
4504;SDS011;2265;48.794;9.520;2024-03-17T01:16:47;13.27;;;5.67;;
4504;SDS011;2265;48.794;9.520;2024-03-17T01:19:14;13.57;;;5.20;;
4504;SDS011;2265;48.794;9.520;2024-03-17T01:21:40;11.83;;;5.50;;
4504;SDS011;2265;48.794;9.520;2024-03-17T01:24:07;13.27;;;5.17;;
4504;SDS011;2265;48.794;9.520;2024-03-17T01:26:44;11.80;;;5.43;;
4504;SDS011;2265;48.794;9.520;2024-03-17T01:29:41;12.20;;;5.70;;
4504;SDS011;2265;48.794;9.520;2024-03-17T01:32:07;12.03;;;6.13;;
4504;SDS011;2265;48.794;9.520;2024-03-17T01:34:37;10.10;;;5.33;;
4504;SDS011;2265;48.794;9.520;2024-03-17T01:37:03;12.80;;;6.00;;
4504;SDS011;2265;48.794;9.520;2024-03-17T01:39:31;12.40;;;5.40;;
4504;SDS011;2265;48.794;9.520;2024-03-17T01:41:57;11.13;;;4.93;;
4504;SDS011;2265;48.794;9.520;2024-03-17T01:44:25;11.27;;;5.50;;
4504;SDS011;2265;48.794;9.520;2024-03-17T01:46:54;11.00;;;5.30;;
4504;SDS011;2265;48.794;9.520;2024-03-17T01:49:22;11.77;;;6.00;;
4504;SDS011;2265;48.794;9.520;2024-03-17T01:51:51;11.77;;;5.10;;
4504;SDS011;2265;48.794;9.520;2024-03-17T01:54:19;10.83;;;5.23;;
4504;SDS011;2265;48.794;9.520;2024-03-17T01:56:46;12.67;;;5.17;;
4504;SDS011;2265;48.794;9.520;2024-03-17T01:59:14;9.27;;;4.77;;
4504;SDS011;2265;48.794;9.520;2024-03-17T02:01:40;9.87;;;5.03;;
4504;SDS011;2265;48.794;9.520;2024-03-17T02:04:11;10.00;;;5.37;;
4504;SDS011;2265;48.794;9.520;2024-03-17T02:06:42;11.53;;;5.47;;
4504;SDS011;2265;48.794;9.520;2024-03-17T02:09:10;11.53;;;5.53;;
4504;SDS011;2265;48.794;9.520;2024-03-17T02:11:36;10.47;;;5.17;;
4504;SDS011;2265;48.794;9.520;2024-03-17T02:14:03;12.27;;;5.40;;
4504;SDS011;2265;48.794;9.520;2024-03-17T02:16:31;11.40;;;4.97;;
4504;SDS011;2265;48.794;9.520;2024-03-17T02:18:58;10.17;;;5.00;;
4504;SDS011;2265;48.794;9.520;2024-03-17T02:21:27;15.47;;;5.50;;
4504;SDS011;2265;48.794;9.520;2024-03-17T02:23:54;10.50;;;4.87;;
4504;SDS011;2265;48.794;9.520;2024-03-17T02:26:22;10.50;;;5.30;;
4504;SDS011;2265;48.794;9.520;2024-03-17T02:28:50;10.10;;;5.27;;
4504;SDS011;2265;48.794;9.520;2024-03-17T02:31:18;10.33;;;4.90;;
4504;SDS011;2265;48.794;9.520;2024-03-17T02:33:44;8.27;;;4.60;;
4504;SDS011;2265;48.794;9.520;2024-03-17T02:36:12;9.57;;;5.10;;
4504;SDS011;2265;48.794;9.520;2024-03-17T02:38:38;9.60;;;5.33;;
4504;SDS011;2265;48.794;9.520;2024-03-17T02:41:25;10.20;;;5.33;;
4504;SDS011;2265;48.794;9.520;2024-03-17T02:43:53;9.43;;;4.70;;
4504;SDS011;2265;48.794;9.520;2024-03-17T02:46:20;8.43;;;4.80;;
4504;SDS011;2265;48.794;9.520;2024-03-17T02:48:50;9.97;;;5.43;;
4504;SDS011;2265;48.794;9.520;2024-03-17T02:51:19;9.73;;;4.73;;
4504;SDS011;2265;48.794;9.520;2024-03-17T02:53:47;12.40;;;5.40;;
4504;SDS011;2265;48.794;9.520;2024-03-17T02:56:16;11.10;;;5.70;;
4504;SDS011;2265;48.794;9.520;2024-03-17T02:58:46;14.27;;;5.57;;
4504;SDS011;2265;48.794;9.520;2024-03-17T03:03:43;9.33;;;4.67;;
4504;SDS011;2265;48.794;9.520;2024-03-17T03:06:10;9.80;;;4.97;;
4504;SDS011;2265;48.794;9.520;2024-03-17T03:08:38;8.63;;;4.50;;
4504;SDS011;2265;48.794;9.520;2024-03-17T03:11:06;9.53;;;4.40;;
4504;SDS011;2265;48.794;9.520;2024-03-17T03:13:36;11.00;;;5.30;;
4504;SDS011;2265;48.794;9.520;2024-03-17T03:16:06;12.13;;;5.17;;
4504;SDS011;2265;48.794;9.520;2024-03-17T03:18:34;11.23;;;5.33;;
4504;SDS011;2265;48.794;9.520;2024-03-17T03:21:01;10.50;;;5.13;;
4504;SDS011;2265;48.794;9.520;2024-03-17T03:23:28;12.00;;;5.50;;
4504;SDS011;2265;48.794;9.520;2024-03-17T03:25:56;10.50;;;5.37;;
4504;SDS011;2265;48.794;9.520;2024-03-17T03:28:24;10.47;;;5.43;;
4504;SDS011;2265;48.794;9.520;2024-03-17T03:30:52;8.40;;;4.77;;
4504;SDS011;2265;48.794;9.520;2024-03-17T03:33:20;11.97;;;5.30;;
4504;SDS011;2265;48.794;9.520;2024-03-17T03:35:48;9.93;;;4.90;;
4504;SDS011;2265;48.794;9.520;2024-03-17T03:38:16;11.67;;;5.30;;
4504;SDS011;2265;48.794;9.520;2024-03-17T03:40:44;8.63;;;4.27;;
4504;SDS011;2265;48.794;9.520;2024-03-17T03:43:14;9.00;;;4.30;;
4504;SDS011;2265;48.794;9.520;2024-03-17T03:45:41;11.07;;;5.30;;
4504;SDS011;2265;48.794;9.520;2024-03-17T03:48:08;9.63;;;4.93;;
4504;SDS011;2265;48.794;9.520;2024-03-17T03:50:37;12.27;;;5.23;;
4504;SDS011;2265;48.794;9.520;2024-03-17T03:53:04;7.40;;;4.43;;
4504;SDS011;2265;48.794;9.520;2024-03-17T03:55:32;9.43;;;5.10;;
4504;SDS011;2265;48.794;9.520;2024-03-17T03:57:59;9.10;;;4.80;;
4504;SDS011;2265;48.794;9.520;2024-03-17T04:00:29;11.20;;;4.50;;
4504;SDS011;2265;48.794;9.520;2024-03-17T04:03:06;9.17;;;4.00;;
4504;SDS011;2265;48.794;9.520;2024-03-17T04:05:33;12.20;;;5.23;;
4504;SDS011;2265;48.794;9.520;2024-03-17T04:08:02;9.13;;;4.80;;
4504;SDS011;2265;48.794;9.520;2024-03-17T04:10:30;9.00;;;4.50;;
4504;SDS011;2265;48.794;9.520;2024-03-17T04:13:00;13.50;;;5.33;;
4504;SDS011;2265;48.794;9.520;2024-03-17T04:15:28;10.37;;;4.70;;
4504;SDS011;2265;48.794;9.520;2024-03-17T04:17:55;10.10;;;4.90;;
4504;SDS011;2265;48.794;9.520;2024-03-17T04:20:22;10.50;;;5.07;;
4504;SDS011;2265;48.794;9.520;2024-03-17T04:22:50;9.33;;;4.67;;
4504;SDS011;2265;48.794;9.520;2024-03-17T04:25:18;13.90;;;5.00;;
4504;SDS011;2265;48.794;9.520;2024-03-17T04:27:45;9.57;;;5.20;;
4504;SDS011;2265;48.794;9.520;2024-03-17T04:30:13;11.40;;;5.10;;
4504;SDS011;2265;48.794;9.520;2024-03-17T04:32:41;10.23;;;5.07;;
4504;SDS011;2265;48.794;9.520;2024-03-17T04:35:08;9.07;;;4.57;;
4504;SDS011;2265;48.794;9.520;2024-03-17T04:37:36;9.47;;;4.60;;
4504;SDS011;2265;48.794;9.520;2024-03-17T04:40:06;8.90;;;4.90;;
4504;SDS011;2265;48.794;9.520;2024-03-17T04:42:37;10.37;;;4.70;;
4504;SDS011;2265;48.794;9.520;2024-03-17T04:45:05;9.10;;;4.73;;
4504;SDS011;2265;48.794;9.520;2024-03-17T04:47:34;8.27;;;4.70;;
4504;SDS011;2265;48.794;9.520;2024-03-17T04:50:03;9.23;;;4.90;;
4504;SDS011;2265;48.794;9.520;2024-03-17T04:52:30;10.83;;;4.83;;
4504;SDS011;2265;48.794;9.520;2024-03-17T04:54:58;7.60;;;4.23;;
4504;SDS011;2265;48.794;9.520;2024-03-17T04:57:25;8.20;;;4.33;;
4504;SDS011;2265;48.794;9.520;2024-03-17T04:59:53;9.47;;;4.67;;
4504;SDS011;2265;48.794;9.520;2024-03-17T05:02:20;12.10;;;5.17;;
4504;SDS011;2265;48.794;9.520;2024-03-17T05:04:49;10.10;;;4.90;;
4504;SDS011;2265;48.794;9.520;2024-03-17T05:07:19;12.47;;;5.30;;
4504;SDS011;2265;48.794;9.520;2024-03-17T05:09:47;23.23;;;5.30;;
4504;SDS011;2265;48.794;9.520;2024-03-17T05:12:15;11.27;;;4.70;;
4504;SDS011;2265;48.794;9.520;2024-03-17T05:14:42;10.93;;;5.50;;
4504;SDS011;2265;48.794;9.520;2024-03-17T05:17:10;9.63;;;5.07;;
4504;SDS011;2265;48.794;9.520;2024-03-17T05:19:37;16.27;;;5.13;;
4504;SDS011;2265;48.794;9.520;2024-03-17T05:22:06;11.87;;;5.30;;
4504;SDS011;2265;48.794;9.520;2024-03-17T05:27:29;10.23;;;4.93;;
4504;SDS011;2265;48.794;9.520;2024-03-17T05:29:56;20.13;;;5.40;;
4504;SDS011;2265;48.794;9.520;2024-03-17T05:32:24;20.00;;;4.83;;
4504;SDS011;2265;48.794;9.520;2024-03-17T05:34:52;10.90;;;5.03;;
4504;SDS011;2265;48.794;9.520;2024-03-17T05:37:20;8.67;;;4.40;;
4504;SDS011;2265;48.794;9.520;2024-03-17T05:39:50;9.20;;;5.20;;
4504;SDS011;2265;48.794;9.520;2024-03-17T05:42:17;10.53;;;4.60;;
4504;SDS011;2265;48.794;9.520;2024-03-17T05:44:44;9.23;;;4.40;;
4504;SDS011;2265;48.794;9.520;2024-03-17T05:47:17;8.93;;;4.30;;
4504;SDS011;2265;48.794;9.520;2024-03-17T05:49:48;8.30;;;4.57;;
4504;SDS011;2265;48.794;9.520;2024-03-17T05:52:16;8.73;;;4.27;;
4504;SDS011;2265;48.794;9.520;2024-03-17T05:54:43;8.30;;;4.47;;
4504;SDS011;2265;48.794;9.520;2024-03-17T05:57:10;9.93;;;4.80;;
4504;SDS011;2265;48.794;9.520;2024-03-17T05:59:39;8.50;;;4.50;;
4504;SDS011;2265;48.794;9.520;2024-03-17T06:02:06;11.20;;;4.47;;
4504;SDS011;2265;48.794;9.520;2024-03-17T06:04:35;9.43;;;4.60;;
4504;SDS011;2265;48.794;9.520;2024-03-17T06:07:05;9.47;;;4.60;;
4504;SDS011;2265;48.794;9.520;2024-03-17T06:09:32;9.33;;;4.53;;
4504;SDS011;2265;48.794;9.520;2024-03-17T06:11:59;7.63;;;4.37;;
4504;SDS011;2265;48.794;9.520;2024-03-17T06:14:26;7.50;;;4.33;;
4504;SDS011;2265;48.794;9.520;2024-03-17T06:16:53;12.10;;;4.57;;
4504;SDS011;2265;48.794;9.520;2024-03-17T06:19:20;9.17;;;4.73;;
4504;SDS011;2265;48.794;9.520;2024-03-17T06:21:48;9.37;;;4.30;;
4504;SDS011;2265;48.794;9.520;2024-03-17T06:24:17;8.37;;;4.27;;
4504;SDS011;2265;48.794;9.520;2024-03-17T06:26:45;9.07;;;4.80;;
4504;SDS011;2265;48.794;9.520;2024-03-17T06:29:14;9.80;;;4.77;;
4504;SDS011;2265;48.794;9.520;2024-03-17T06:31:41;9.20;;;4.93;;
4504;SDS011;2265;48.794;9.520;2024-03-17T06:34:10;9.17;;;4.87;;
4504;SDS011;2265;48.794;9.520;2024-03-17T06:36:37;10.47;;;4.70;;
4504;SDS011;2265;48.794;9.520;2024-03-17T06:39:04;9.37;;;4.70;;
4504;SDS011;2265;48.794;9.520;2024-03-17T06:41:33;9.60;;;4.37;;
4504;SDS011;2265;48.794;9.520;2024-03-17T06:44:02;10.40;;;4.90;;
4504;SDS011;2265;48.794;9.520;2024-03-17T06:46:32;12.43;;;4.60;;
4504;SDS011;2265;48.794;9.520;2024-03-17T06:49:02;10.60;;;4.77;;
4504;SDS011;2265;48.794;9.520;2024-03-17T06:51:29;11.37;;;5.30;;
4504;SDS011;2265;48.794;9.520;2024-03-17T06:53:57;10.40;;;5.10;;
4504;SDS011;2265;48.794;9.520;2024-03-17T06:56:25;8.20;;;4.37;;
4504;SDS011;2265;48.794;9.520;2024-03-17T06:58:53;13.73;;;4.90;;
4504;SDS011;2265;48.794;9.520;2024-03-17T07:01:20;9.63;;;4.90;;
4504;SDS011;2265;48.794;9.520;2024-03-17T07:03:48;8.83;;;4.50;;
4504;SDS011;2265;48.794;9.520;2024-03-17T07:06:15;12.50;;;6.20;;
4504;SDS011;2265;48.794;9.520;2024-03-17T07:08:42;10.13;;;5.60;;
4504;SDS011;2265;48.794;9.520;2024-03-17T07:11:09;10.03;;;5.00;;
4504;SDS011;2265;48.794;9.520;2024-03-17T07:13:37;13.20;;;5.50;;
4504;SDS011;2265;48.794;9.520;2024-03-17T07:16:07;12.23;;;5.80;;
4504;SDS011;2265;48.794;9.520;2024-03-17T07:18:35;10.00;;;5.17;;
4504;SDS011;2265;48.794;9.520;2024-03-17T07:21:02;11.07;;;5.47;;
4504;SDS011;2265;48.794;9.520;2024-03-17T07:23:30;13.50;;;5.73;;
4504;SDS011;2265;48.794;9.520;2024-03-17T07:25:58;11.27;;;5.57;;
4504;SDS011;2265;48.794;9.520;2024-03-17T07:28:27;9.77;;;5.30;;
4504;SDS011;2265;48.794;9.520;2024-03-17T07:30:54;12.23;;;5.47;;
4504;SDS011;2265;48.794;9.520;2024-03-17T07:33:24;12.97;;;5.80;;
4504;SDS011;2265;48.794;9.520;2024-03-17T07:35:51;14.17;;;6.70;;
4504;SDS011;2265;48.794;9.520;2024-03-17T07:38:21;11.07;;;5.57;;
4504;SDS011;2265;48.794;9.520;2024-03-17T07:40:55;12.10;;;6.00;;
4504;SDS011;2265;48.794;9.520;2024-03-17T07:43:24;11.47;;;5.50;;
4504;SDS011;2265;48.794;9.520;2024-03-17T07:45:58;13.30;;;6.27;;
4504;SDS011;2265;48.794;9.520;2024-03-17T07:48:27;10.37;;;5.37;;
4504;SDS011;2265;48.794;9.520;2024-03-17T07:50:55;10.83;;;5.90;;
4504;SDS011;2265;48.794;9.520;2024-03-17T07:53:23;12.60;;;6.13;;
4504;SDS011;2265;48.794;9.520;2024-03-17T07:56:01;13.73;;;6.33;;
4504;SDS011;2265;48.794;9.520;2024-03-17T07:58:30;14.27;;;6.17;;
4504;SDS011;2265;48.794;9.520;2024-03-17T08:01:00;12.37;;;5.80;;
4504;SDS011;2265;48.794;9.520;2024-03-17T08:03:28;10.57;;;5.10;;
4504;SDS011;2265;48.794;9.520;2024-03-17T08:05:56;10.97;;;5.60;;
4504;SDS011;2265;48.794;9.520;2024-03-17T08:08:24;20.07;;;7.90;;
4504;SDS011;2265;48.794;9.520;2024-03-17T08:10:51;16.10;;;7.97;;
4504;SDS011;2265;48.794;9.520;2024-03-17T08:13:18;15.10;;;7.10;;
4504;SDS011;2265;48.794;9.520;2024-03-17T08:15:46;12.97;;;6.67;;
4504;SDS011;2265;48.794;9.520;2024-03-17T08:18:21;20.53;;;7.60;;
4504;SDS011;2265;48.794;9.520;2024-03-17T08:20:50;16.43;;;7.27;;
4504;SDS011;2265;48.794;9.520;2024-03-17T08:23:18;14.13;;;7.40;;
4504;SDS011;2265;48.794;9.520;2024-03-17T08:25:51;19.90;;;7.67;;
4504;SDS011;2265;48.794;9.520;2024-03-17T08:28:19;14.13;;;6.87;;
4504;SDS011;2265;48.794;9.520;2024-03-17T08:30:52;13.67;;;6.70;;
4504;SDS011;2265;48.794;9.520;2024-03-17T08:33:19;17.90;;;7.87;;
4504;SDS011;2265;48.794;9.520;2024-03-17T08:35:53;13.63;;;6.43;;
4504;SDS011;2265;48.794;9.520;2024-03-17T08:38:21;14.87;;;7.40;;
4504;SDS011;2265;48.794;9.520;2024-03-17T08:40:49;14.53;;;6.50;;
4504;SDS011;2265;48.794;9.520;2024-03-17T08:43:16;14.47;;;7.10;;
4504;SDS011;2265;48.794;9.520;2024-03-17T08:45:43;12.50;;;6.80;;
4504;SDS011;2265;48.794;9.520;2024-03-17T08:48:10;13.07;;;6.67;;
4504;SDS011;2265;48.794;9.520;2024-03-17T08:50:37;12.63;;;6.63;;
4504;SDS011;2265;48.794;9.520;2024-03-17T08:53:06;14.97;;;7.43;;
4504;SDS011;2265;48.794;9.520;2024-03-17T08:55:34;14.80;;;7.03;;
4504;SDS011;2265;48.794;9.520;2024-03-17T08:58:01;12.33;;;6.40;;
4504;SDS011;2265;48.794;9.520;2024-03-17T09:00:28;14.40;;;6.80;;
4504;SDS011;2265;48.794;9.520;2024-03-17T09:02:56;14.23;;;6.80;;
4504;SDS011;2265;48.794;9.520;2024-03-17T09:05:23;16.80;;;7.70;;
4504;SDS011;2265;48.794;9.520;2024-03-17T09:07:50;15.60;;;7.53;;
4504;SDS011;2265;48.794;9.520;2024-03-17T09:10:19;15.20;;;7.57;;
4504;SDS011;2265;48.794;9.520;2024-03-17T09:12:46;15.07;;;7.63;;
4504;SDS011;2265;48.794;9.520;2024-03-17T09:15:15;13.87;;;7.50;;
4504;SDS011;2265;48.794;9.520;2024-03-17T09:17:42;16.07;;;7.47;;
4504;SDS011;2265;48.794;9.520;2024-03-17T09:20:10;13.63;;;7.00;;
4504;SDS011;2265;48.794;9.520;2024-03-17T09:22:41;15.57;;;6.73;;
4504;SDS011;2265;48.794;9.520;2024-03-17T09:25:08;14.40;;;6.90;;
4504;SDS011;2265;48.794;9.520;2024-03-17T09:27:38;13.27;;;6.80;;
4504;SDS011;2265;48.794;9.520;2024-03-17T09:30:06;13.37;;;6.50;;
4504;SDS011;2265;48.794;9.520;2024-03-17T09:32:35;12.30;;;6.70;;
4504;SDS011;2265;48.794;9.520;2024-03-17T09:35:05;12.10;;;6.43;;
4504;SDS011;2265;48.794;9.520;2024-03-17T09:37:34;12.17;;;6.50;;
4504;SDS011;2265;48.794;9.520;2024-03-17T09:40:02;12.70;;;6.47;;
4504;SDS011;2265;48.794;9.520;2024-03-17T09:42:31;12.60;;;6.77;;
4504;SDS011;2265;48.794;9.520;2024-03-17T09:45:00;12.63;;;6.40;;
4504;SDS011;2265;48.794;9.520;2024-03-17T09:47:27;13.43;;;6.60;;
4504;SDS011;2265;48.794;9.520;2024-03-17T09:49:55;11.77;;;5.87;;
4504;SDS011;2265;48.794;9.520;2024-03-17T09:52:22;10.83;;;5.50;;
4504;SDS011;2265;48.794;9.520;2024-03-17T09:54:53;15.10;;;6.30;;
4504;SDS011;2265;48.794;9.520;2024-03-17T09:57:24;9.30;;;5.10;;
4504;SDS011;2265;48.794;9.520;2024-03-17T09:59:55;9.70;;;4.50;;
4504;SDS011;2265;48.794;9.520;2024-03-17T10:02:24;8.40;;;5.10;;
4504;SDS011;2265;48.794;9.520;2024-03-17T10:04:51;10.37;;;5.67;;
4504;SDS011;2265;48.794;9.520;2024-03-17T10:07:18;10.77;;;4.90;;
4504;SDS011;2265;48.794;9.520;2024-03-17T10:10:10;8.07;;;4.90;;
4504;SDS011;2265;48.794;9.520;2024-03-17T10:12:39;10.03;;;4.97;;
4504;SDS011;2265;48.794;9.520;2024-03-17T10:15:08;9.67;;;5.03;;
4504;SDS011;2265;48.794;9.520;2024-03-17T10:17:39;8.57;;;4.27;;
4504;SDS011;2265;48.794;9.520;2024-03-17T10:20:13;9.00;;;4.43;;
4504;SDS011;2265;48.794;9.520;2024-03-17T10:22:58;8.83;;;4.53;;
4504;SDS011;2265;48.794;9.520;2024-03-17T10:25:27;9.90;;;4.50;;
4504;SDS011;2265;48.794;9.520;2024-03-17T10:28:01;6.43;;;4.00;;
4504;SDS011;2265;48.794;9.520;2024-03-17T10:30:28;6.57;;;4.17;;
4504;SDS011;2265;48.794;9.520;2024-03-17T10:32:59;10.43;;;4.53;;
4504;SDS011;2265;48.794;9.520;2024-03-17T10:35:27;21.40;;;8.90;;
4504;SDS011;2265;48.794;9.520;2024-03-17T10:38:01;7.63;;;4.50;;
4504;SDS011;2265;48.794;9.520;2024-03-17T10:40:30;8.40;;;4.57;;
4504;SDS011;2265;48.794;9.520;2024-03-17T10:42:59;7.70;;;3.93;;
4504;SDS011;2265;48.794;9.520;2024-03-17T10:45:28;8.03;;;4.20;;
4504;SDS011;2265;48.794;9.520;2024-03-17T10:47:59;7.53;;;4.13;;
4504;SDS011;2265;48.794;9.520;2024-03-17T10:50:35;7.30;;;4.33;;
4504;SDS011;2265;48.794;9.520;2024-03-17T10:53:04;5.43;;;3.60;;
4504;SDS011;2265;48.794;9.520;2024-03-17T10:55:38;7.50;;;3.90;;
4504;SDS011;2265;48.794;9.520;2024-03-17T10:58:12;8.27;;;4.20;;
4504;SDS011;2265;48.794;9.520;2024-03-17T11:00:50;7.40;;;4.23;;
4504;SDS011;2265;48.794;9.520;2024-03-17T11:03:19;6.30;;;3.87;;
4504;SDS011;2265;48.794;9.520;2024-03-17T11:05:47;7.43;;;3.90;;
4504;SDS011;2265;48.794;9.520;2024-03-17T11:08:16;6.53;;;4.10;;
4504;SDS011;2265;48.794;9.520;2024-03-17T11:10:49;7.70;;;4.17;;
4504;SDS011;2265;48.794;9.520;2024-03-17T11:13:24;5.67;;;4.03;;
4504;SDS011;2265;48.794;9.520;2024-03-17T11:15:52;6.30;;;3.90;;
4504;SDS011;2265;48.794;9.520;2024-03-17T11:18:40;6.50;;;3.47;;
4504;SDS011;2265;48.794;9.520;2024-03-17T11:21:18;6.83;;;3.80;;
4504;SDS011;2265;48.794;9.520;2024-03-17T11:23:57;6.27;;;3.87;;
4504;SDS011;2265;48.794;9.520;2024-03-17T11:26:29;6.40;;;3.60;;
4504;SDS011;2265;48.794;9.520;2024-03-17T11:29:23;6.60;;;3.80;;
4504;SDS011;2265;48.794;9.520;2024-03-17T11:31:53;5.60;;;3.67;;
4504;SDS011;2265;48.794;9.520;2024-03-17T11:34:31;8.47;;;4.13;;
4504;SDS011;2265;48.794;9.520;2024-03-17T11:36:59;6.27;;;4.07;;
4504;SDS011;2265;48.794;9.520;2024-03-17T11:42:23;6.70;;;3.60;;
4504;SDS011;2265;48.794;9.520;2024-03-17T11:45:02;7.20;;;4.13;;
4504;SDS011;2265;48.794;9.520;2024-03-17T11:47:35;5.57;;;3.57;;
4504;SDS011;2265;48.794;9.520;2024-03-17T11:50:05;5.13;;;3.27;;
4504;SDS011;2265;48.794;9.520;2024-03-17T11:52:35;5.13;;;3.37;;
4504;SDS011;2265;48.794;9.520;2024-03-17T11:55:02;7.03;;;4.00;;
4504;SDS011;2265;48.794;9.520;2024-03-17T11:57:29;6.37;;;3.63;;
4504;SDS011;2265;48.794;9.520;2024-03-17T11:59:57;6.50;;;3.50;;
4504;SDS011;2265;48.794;9.520;2024-03-17T12:02:25;6.53;;;3.23;;
4504;SDS011;2265;48.794;9.520;2024-03-17T12:04:53;7.10;;;3.70;;
4504;SDS011;2265;48.794;9.520;2024-03-17T12:07:24;4.73;;;3.17;;
4504;SDS011;2265;48.794;9.520;2024-03-17T12:09:53;6.03;;;3.30;;
4504;SDS011;2265;48.794;9.520;2024-03-17T12:12:21;5.37;;;3.50;;
4504;SDS011;2265;48.794;9.520;2024-03-17T12:14:49;4.97;;;3.20;;
4504;SDS011;2265;48.794;9.520;2024-03-17T12:17:19;7.33;;;3.83;;
4504;SDS011;2265;48.794;9.520;2024-03-17T12:19:48;4.43;;;3.10;;
4504;SDS011;2265;48.794;9.520;2024-03-17T12:22:15;5.33;;;3.07;;
4504;SDS011;2265;48.794;9.520;2024-03-17T12:24:49;4.87;;;3.30;;
4504;SDS011;2265;48.794;9.520;2024-03-17T12:27:19;5.20;;;3.10;;
4504;SDS011;2265;48.794;9.520;2024-03-17T12:29:47;6.23;;;3.07;;
4504;SDS011;2265;48.794;9.520;2024-03-17T12:32:15;4.13;;;2.80;;
4504;SDS011;2265;48.794;9.520;2024-03-17T12:34:44;4.60;;;3.00;;
4504;SDS011;2265;48.794;9.520;2024-03-17T12:37:13;9.43;;;2.97;;
4504;SDS011;2265;48.794;9.520;2024-03-17T12:39:44;7.27;;;3.33;;
4504;SDS011;2265;48.794;9.520;2024-03-17T12:42:12;5.80;;;3.10;;
4504;SDS011;2265;48.794;9.520;2024-03-17T12:44:46;4.13;;;2.53;;
4504;SDS011;2265;48.794;9.520;2024-03-17T12:47:15;5.77;;;2.93;;
4504;SDS011;2265;48.794;9.520;2024-03-17T12:49:44;4.53;;;2.93;;
4504;SDS011;2265;48.794;9.520;2024-03-17T12:52:17;5.27;;;3.07;;
4504;SDS011;2265;48.794;9.520;2024-03-17T12:54:44;5.60;;;3.07;;
4504;SDS011;2265;48.794;9.520;2024-03-17T12:57:43;5.07;;;2.83;;
4504;SDS011;2265;48.794;9.520;2024-03-17T13:00:29;5.07;;;2.80;;
4504;SDS011;2265;48.794;9.520;2024-03-17T13:03:00;5.23;;;2.83;;
4504;SDS011;2265;48.794;9.520;2024-03-17T13:05:27;4.53;;;2.77;;
4504;SDS011;2265;48.794;9.520;2024-03-17T13:07:54;6.70;;;2.60;;
4504;SDS011;2265;48.794;9.520;2024-03-17T13:10:23;4.70;;;2.90;;
4504;SDS011;2265;48.794;9.520;2024-03-17T13:13:05;4.13;;;2.73;;
4504;SDS011;2265;48.794;9.520;2024-03-17T13:15:37;4.80;;;2.70;;
4504;SDS011;2265;48.794;9.520;2024-03-17T13:18:15;5.97;;;2.70;;
4504;SDS011;2265;48.794;9.520;2024-03-17T13:20:44;4.00;;;2.70;;
4504;SDS011;2265;48.794;9.520;2024-03-17T13:23:11;4.10;;;2.80;;
4504;SDS011;2265;48.794;9.520;2024-03-17T13:25:39;7.53;;;2.97;;
4504;SDS011;2265;48.794;9.520;2024-03-17T13:28:10;3.87;;;2.67;;
4504;SDS011;2265;48.794;9.520;2024-03-17T13:30:37;5.27;;;2.63;;
4504;SDS011;2265;48.794;9.520;2024-03-17T13:33:05;4.10;;;2.67;;
4504;SDS011;2265;48.794;9.520;2024-03-17T13:35:35;5.67;;;2.80;;
4504;SDS011;2265;48.794;9.520;2024-03-17T13:38:04;4.03;;;2.60;;
4504;SDS011;2265;48.794;9.520;2024-03-17T13:40:36;5.57;;;2.70;;
4504;SDS011;2265;48.794;9.520;2024-03-17T13:43:08;6.97;;;3.30;;
4504;SDS011;2265;48.794;9.520;2024-03-17T13:45:38;3.10;;;2.40;;
4504;SDS011;2265;48.794;9.520;2024-03-17T13:48:06;5.77;;;2.53;;
4504;SDS011;2265;48.794;9.520;2024-03-17T13:50:35;4.33;;;2.50;;
4504;SDS011;2265;48.794;9.520;2024-03-17T13:53:04;5.53;;;2.93;;
4504;SDS011;2265;48.794;9.520;2024-03-17T13:55:32;3.90;;;2.80;;
4504;SDS011;2265;48.794;9.520;2024-03-17T13:58:00;4.73;;;2.97;;
4504;SDS011;2265;48.794;9.520;2024-03-17T14:00:31;4.60;;;3.00;;
4504;SDS011;2265;48.794;9.520;2024-03-17T14:03:01;5.80;;;3.13;;
4504;SDS011;2265;48.794;9.520;2024-03-17T14:05:29;5.27;;;2.90;;
4504;SDS011;2265;48.794;9.520;2024-03-17T14:07:58;7.47;;;2.80;;
4504;SDS011;2265;48.794;9.520;2024-03-17T14:10:25;4.83;;;2.90;;
4504;SDS011;2265;48.794;9.520;2024-03-17T14:12:54;5.70;;;2.70;;
4504;SDS011;2265;48.794;9.520;2024-03-17T14:15:22;5.50;;;2.77;;
4504;SDS011;2265;48.794;9.520;2024-03-17T14:17:51;5.53;;;2.80;;
4504;SDS011;2265;48.794;9.520;2024-03-17T14:20:19;4.00;;;2.53;;
4504;SDS011;2265;48.794;9.520;2024-03-17T14:22:46;4.10;;;2.70;;
4504;SDS011;2265;48.794;9.520;2024-03-17T14:25:18;6.63;;;2.73;;
4504;SDS011;2265;48.794;9.520;2024-03-17T14:27:47;3.63;;;2.60;;
4504;SDS011;2265;48.794;9.520;2024-03-17T14:30:15;5.93;;;2.90;;
4504;SDS011;2265;48.794;9.520;2024-03-17T14:32:43;4.20;;;2.87;;
4504;SDS011;2265;48.794;9.520;2024-03-17T14:35:12;3.57;;;2.50;;
4504;SDS011;2265;48.794;9.520;2024-03-17T14:37:40;5.20;;;2.73;;
4504;SDS011;2265;48.794;9.520;2024-03-17T14:40:08;4.20;;;2.80;;
4504;SDS011;2265;48.794;9.520;2024-03-17T14:42:42;4.83;;;2.60;;
4504;SDS011;2265;48.794;9.520;2024-03-17T14:45:10;4.00;;;2.77;;
4504;SDS011;2265;48.794;9.520;2024-03-17T14:47:40;4.70;;;2.90;;
4504;SDS011;2265;48.794;9.520;2024-03-17T14:50:09;5.20;;;2.80;;
4504;SDS011;2265;48.794;9.520;2024-03-17T14:52:39;5.30;;;3.17;;
4504;SDS011;2265;48.794;9.520;2024-03-17T14:55:07;3.23;;;2.53;;
4504;SDS011;2265;48.794;9.520;2024-03-17T14:57:36;5.10;;;3.13;;
4504;SDS011;2265;48.794;9.520;2024-03-17T15:00:04;4.33;;;3.20;;
4504;SDS011;2265;48.794;9.520;2024-03-17T15:02:39;4.10;;;2.90;;
4504;SDS011;2265;48.794;9.520;2024-03-17T15:05:08;5.80;;;2.87;;
4504;SDS011;2265;48.794;9.520;2024-03-17T15:07:35;5.10;;;3.00;;
4504;SDS011;2265;48.794;9.520;2024-03-17T15:10:04;4.00;;;2.63;;
4504;SDS011;2265;48.794;9.520;2024-03-17T15:12:33;4.23;;;3.00;;
4504;SDS011;2265;48.794;9.520;2024-03-17T15:15:00;4.27;;;2.80;;
4504;SDS011;2265;48.794;9.520;2024-03-17T15:17:27;5.20;;;3.20;;
4504;SDS011;2265;48.794;9.520;2024-03-17T15:19:54;8.17;;;3.40;;
4504;SDS011;2265;48.794;9.520;2024-03-17T15:22:22;4.10;;;3.00;;
4504;SDS011;2265;48.794;9.520;2024-03-17T15:24:49;5.07;;;3.10;;
4504;SDS011;2265;48.794;9.520;2024-03-17T15:27:17;5.47;;;3.03;;